sensor_id;sensor_type;location;lat;lon;timestamp;pressure;altitude;pressure_sealevel;temperature;humidity
57827;BME280;43656;57.746;11.780;2023-03-22T00:01:59;100196.69;;;9.73;100.00
57827;BME280;43656;57.746;11.780;2023-03-22T00:04:25;100190.91;;;9.76;100.00
57827;BME280;43656;57.746;11.780;2023-03-22T00:06:50;100181.81;;;9.77;100.00
57827;BME280;43656;57.746;11.780;2023-03-22T00:09:16;100169.81;;;9.67;100.00
57827;BME280;43656;57.746;11.780;2023-03-22T00:11:42;100184.09;;;9.80;100.00
57827;BME280;43656;57.746;11.780;2023-03-22T00:14:07;100190.69;;;9.84;100.00
57827;BME280;43656;57.746;11.780;2023-03-22T00:16:33;100188.19;;;9.83;100.00
57827;BME280;43656;57.746;11.780;2023-03-22T00:18:58;100179.53;;;9.81;100.00
57827;BME280;43656;57.746;11.780;2023-03-22T00:21:24;100175.00;;;9.81;100.00
57827;BME280;43656;57.746;11.780;2023-03-22T00:23:49;100164.44;;;9.73;100.00
57827;BME280;43656;57.746;11.780;2023-03-22T00:26:15;100179.31;;;9.82;100.00
57827;BME280;43656;57.746;11.780;2023-03-22T00:28:41;100177.28;;;9.78;100.00
57827;BME280;43656;57.746;11.780;2023-03-22T00:31:07;100169.63;;;9.75;100.00
57827;BME280;43656;57.746;11.780;2023-03-22T00:33:34;100147.13;;;9.56;100.00
57827;BME280;43656;57.746;11.780;2023-03-22T00:36:05;100165.88;;;9.82;100.00
57827;BME280;43656;57.746;11.780;2023-03-22T00:38:31;100162.78;;;9.79;100.00
57827;BME280;43656;57.746;11.780;2023-03-22T00:41:22;100160.50;;;9.82;100.00
57827;BME280;43656;57.746;11.780;2023-03-22T00:43:49;100153.28;;;9.76;100.00
57827;BME280;43656;57.746;11.780;2023-03-22T00:46:16;100153.91;;;9.78;100.00
57827;BME280;43656;57.746;11.780;2023-03-22T00:48:43;100144.38;;;9.82;100.00
57827;BME280;43656;57.746;11.780;2023-03-22T00:51:09;100144.22;;;9.77;100.00
57827;BME280;43656;57.746;11.780;2023-03-22T00:53:35;100147.91;;;9.83;100.00
57827;BME280;43656;57.746;11.780;2023-03-22T00:56:02;100142.53;;;9.83;100.00
57827;BME280;43656;57.746;11.780;2023-03-22T00:58:27;100133.63;;;9.82;100.00
57827;BME280;43656;57.746;11.780;2023-03-22T01:00:53;100135.50;;;9.88;100.00
57827;BME280;43656;57.746;11.780;2023-03-22T01:03:18;100125.56;;;9.82;100.00
57827;BME280;43656;57.746;11.780;2023-03-22T01:05:46;100102.47;;;9.68;100.00
57827;BME280;43656;57.746;11.780;2023-03-22T01:08:14;100130.13;;;9.88;100.00
57827;BME280;43656;57.746;11.780;2023-03-22T01:10:41;100117.53;;;9.76;100.00
57827;BME280;43656;57.746;11.780;2023-03-22T01:13:07;100110.13;;;9.71;100.00
57827;BME280;43656;57.746;11.780;2023-03-22T01:15:33;100131.19;;;9.81;100.00
57827;BME280;43656;57.746;11.780;2023-03-22T01:17:59;100132.63;;;9.83;100.00
57827;BME280;43656;57.746;11.780;2023-03-22T01:20:25;100102.50;;;9.61;100.00
57827;BME280;43656;57.746;11.780;2023-03-22T01:22:51;100113.84;;;9.77;100.00
57827;BME280;43656;57.746;11.780;2023-03-22T01:25:16;100116.09;;;9.73;100.00
57827;BME280;43656;57.746;11.780;2023-03-22T01:27:42;100112.81;;;9.71;100.00
57827;BME280;43656;57.746;11.780;2023-03-22T01:30:08;100102.22;;;9.76;100.00
57827;BME280;43656;57.746;11.780;2023-03-22T01:32:35;100097.91;;;9.75;100.00
57827;BME280;43656;57.746;11.780;2023-03-22T01:35:01;100092.94;;;9.72;100.00
57827;BME280;43656;57.746;11.780;2023-03-22T01:37:26;100094.41;;;9.75;100.00
57827;BME280;43656;57.746;11.780;2023-03-22T01:39:55;100085.72;;;9.66;100.00
57827;BME280;43656;57.746;11.780;2023-03-22T01:42:22;100078.31;;;9.68;100.00
57827;BME280;43656;57.746;11.780;2023-03-22T01:47:40;100076.44;;;9.62;100.00
57827;BME280;43656;57.746;11.780;2023-03-22T01:50:07;100043.22;;;9.50;100.00
57827;BME280;43656;57.746;11.780;2023-03-22T01:52:34;100058.44;;;9.69;100.00
57827;BME280;43656;57.746;11.780;2023-03-22T01:55:03;100045.03;;;9.69;100.00
57827;BME280;43656;57.746;11.780;2023-03-22T01:57:30;100040.50;;;9.63;100.00
57827;BME280;43656;57.746;11.780;2023-03-22T01:59:58;100052.47;;;9.67;100.00
57827;BME280;43656;57.746;11.780;2023-03-22T02:02:23;100056.81;;;9.68;100.00
57827;BME280;43656;57.746;11.780;2023-03-22T02:04:49;100042.78;;;9.59;100.00
57827;BME280;43656;57.746;11.780;2023-03-22T02:07:16;100052.69;;;9.65;100.00
57827;BME280;43656;57.746;11.780;2023-03-22T02:09:51;100050.63;;;9.68;100.00
57827;BME280;43656;57.746;11.780;2023-03-22T02:15:07;100050.81;;;9.66;100.00
57827;BME280;43656;57.746;11.780;2023-03-22T02:17:59;100051.06;;;9.58;100.00
57827;BME280;43656;57.746;11.780;2023-03-22T02:42:22;100032.66;;;9.61;100.00
57827;BME280;43656;57.746;11.780;2023-03-22T02:45:11;100036.59;;;9.59;100.00
57827;BME280;43656;57.746;11.780;2023-03-22T02:47:59;100034.91;;;9.64;100.00
57827;BME280;43656;57.746;11.780;2023-03-22T02:58:25;100029.56;;;9.58;100.00
57827;BME280;43656;57.746;11.780;2023-03-22T03:00:58;100025.22;;;9.50;100.00
57827;BME280;43656;57.746;11.780;2023-03-22T03:03:26;100022.53;;;9.57;100.00
57827;BME280;43656;57.746;11.780;2023-03-22T03:06:00;100023.97;;;9.59;100.00
57827;BME280;43656;57.746;11.780;2023-03-22T03:08:27;100024.19;;;9.58;100.00
57827;BME280;43656;57.746;11.780;2023-03-22T03:10:54;100027.91;;;9.63;100.00
57827;BME280;43656;57.746;11.780;2023-03-22T03:13:20;100024.78;;;9.67;100.00
57827;BME280;43656;57.746;11.780;2023-03-22T03:15:50;100004.34;;;9.59;100.00
57827;BME280;43656;57.746;11.780;2023-03-22T03:18:30;100003.72;;;9.70;100.00
57827;BME280;43656;57.746;11.780;2023-03-22T03:24:08;100011.78;;;9.70;100.00
57827;BME280;43656;57.746;11.780;2023-03-22T03:35:04;99997.34;;;9.58;100.00
57827;BME280;43656;57.746;11.780;2023-03-22T03:37:38;99999.38;;;9.62;100.00
57827;BME280;43656;57.746;11.780;2023-03-22T03:40:10;99997.31;;;9.64;100.00
57827;BME280;43656;57.746;11.780;2023-03-22T03:42:39;99994.66;;;9.58;100.00
57827;BME280;43656;57.746;11.780;2023-03-22T03:45:08;99985.56;;;9.59;100.00
57827;BME280;43656;57.746;11.780;2023-03-22T03:47:35;99981.41;;;9.63;100.00
57827;BME280;43656;57.746;11.780;2023-03-22T03:50:03;99983.50;;;9.61;100.00
57827;BME280;43656;57.746;11.780;2023-03-22T03:52:28;99988.84;;;9.68;100.00
57827;BME280;43656;57.746;11.780;2023-03-22T03:54:54;99973.97;;;9.65;100.00
57827;BME280;43656;57.746;11.780;2023-03-22T03:57:20;99959.91;;;9.63;100.00
57827;BME280;43656;57.746;11.780;2023-03-22T03:59:46;99966.94;;;9.64;100.00
57827;BME280;43656;57.746;11.780;2023-03-22T04:02:11;99943.84;;;9.50;100.00
57827;BME280;43656;57.746;11.780;2023-03-22T04:04:36;99964.88;;;9.59;100.00
57827;BME280;43656;57.746;11.780;2023-03-22T04:07:04;99962.81;;;9.61;100.00
57827;BME280;43656;57.746;11.780;2023-03-22T04:09:32;99966.72;;;9.65;100.00
57827;BME280;43656;57.746;11.780;2023-03-22T04:11:58;99955.84;;;9.54;100.00
57827;BME280;43656;57.746;11.780;2023-03-22T04:14:25;99958.69;;;9.59;100.00
57827;BME280;43656;57.746;11.780;2023-03-22T04:16:51;99956.22;;;9.57;100.00
57827;BME280;43656;57.746;11.780;2023-03-22T04:19:17;99942.41;;;9.54;100.00
57827;BME280;43656;57.746;11.780;2023-03-22T04:21:43;99947.13;;;9.58;100.00
57827;BME280;43656;57.746;11.780;2023-03-22T04:24:10;99933.06;;;9.56;100.00
57827;BME280;43656;57.746;11.780;2023-03-22T04:26:36;99927.31;;;9.53;100.00
57827;BME280;43656;57.746;11.780;2023-03-22T04:29:02;99934.34;;;9.54;100.00
57827;BME280;43656;57.746;11.780;2023-03-22T04:31:29;99938.41;;;9.63;100.00
57827;BME280;43656;57.746;11.780;2023-03-22T04:33:55;99931.41;;;9.62;100.00
57827;BME280;43656;57.746;11.780;2023-03-22T04:36:24;99928.53;;;9.63;100.00
57827;BME280;43656;57.746;11.780;2023-03-22T04:38:50;99933.66;;;9.65;100.00
57827;BME280;43656;57.746;11.780;2023-03-22T04:41:16;99917.38;;;9.53;100.00
57827;BME280;43656;57.746;11.780;2023-03-22T04:43:42;99940.50;;;9.61;100.00
57827;BME280;43656;57.746;11.780;2023-03-22T04:46:11;99935.53;;;9.64;100.00
57827;BME280;43656;57.746;11.780;2023-03-22T04:48:39;99934.94;;;9.56;100.00
57827;BME280;43656;57.746;11.780;2023-03-22T04:51:06;99938.03;;;9.59;100.00
57827;BME280;43656;57.746;11.780;2023-03-22T04:53:32;99938.72;;;9.48;100.00
57827;BME280;43656;57.746;11.780;2023-03-22T04:55:57;99930.75;;;9.67;100.00
57827;BME280;43656;57.746;11.780;2023-03-22T04:58:24;99927.75;;;9.50;100.00
57827;BME280;43656;57.746;11.780;2023-03-22T05:00:51;99934.94;;;9.56;100.00
57827;BME280;43656;57.746;11.780;2023-03-22T05:03:20;99930.22;;;9.51;100.00
57827;BME280;43656;57.746;11.780;2023-03-22T05:05:57;99928.34;;;9.58;100.00
57827;BME280;43656;57.746;11.780;2023-03-22T05:08:24;99923.34;;;9.62;100.00
57827;BME280;43656;57.746;11.780;2023-03-22T05:10:54;99920.25;;;9.65;100.00
57827;BME280;43656;57.746;11.780;2023-03-22T05:13:21;99919.44;;;9.58;100.00
57827;BME280;43656;57.746;11.780;2023-03-22T05:15:47;99918.25;;;9.54;100.00
57827;BME280;43656;57.746;11.780;2023-03-22T05:18:17;99917.38;;;9.53;100.00
57827;BME280;43656;57.746;11.780;2023-03-22T05:20:47;99915.94;;;9.57;100.00
57827;BME280;43656;57.746;11.780;2023-03-22T05:23:13;99905.63;;;9.54;100.00
57827;BME280;43656;57.746;11.780;2023-03-22T05:25:44;99906.88;;;9.52;100.00
57827;BME280;43656;57.746;11.780;2023-03-22T05:28:11;99902.91;;;9.61;100.00
57827;BME280;43656;57.746;11.780;2023-03-22T05:30:39;99905.41;;;9.56;100.00
57827;BME280;43656;57.746;11.780;2023-03-22T05:33:05;99889.53;;;9.54;100.00
57827;BME280;43656;57.746;11.780;2023-03-22T05:35:32;99895.63;;;9.68;100.00
57827;BME280;43656;57.746;11.780;2023-03-22T05:37:58;99891.03;;;9.75;100.00
57827;BME280;43656;57.746;11.780;2023-03-22T05:40:25;99886.88;;;9.79;100.00
57827;BME280;43656;57.746;11.780;2023-03-22T05:42:51;99882.16;;;9.75;100.00
57827;BME280;43656;57.746;11.780;2023-03-22T05:45:17;99879.28;;;9.70;100.00
57827;BME280;43656;57.746;11.780;2023-03-22T05:47:43;99878.38;;;9.82;100.00
57827;BME280;43656;57.746;11.780;2023-03-22T05:50:11;99884.38;;;9.84;100.00
57827;BME280;43656;57.746;11.780;2023-03-22T05:52:37;99878.56;;;9.87;100.00
57827;BME280;43656;57.746;11.780;2023-03-22T05:55:04;99872.16;;;9.88;100.00
57827;BME280;43656;57.746;11.780;2023-03-22T05:57:31;99863.22;;;9.95;100.00
57827;BME280;43656;57.746;11.780;2023-03-22T05:59:56;99840.78;;;9.82;100.00
57827;BME280;43656;57.746;11.780;2023-03-22T06:02:22;99844.22;;;9.89;100.00
57827;BME280;43656;57.746;11.780;2023-03-22T06:04:48;99843.22;;;9.91;100.00
57827;BME280;43656;57.746;11.780;2023-03-22T06:07:14;99855.31;;;10.00;100.00
57827;BME280;43656;57.746;11.780;2023-03-22T06:09:40;99803.69;;;9.66;100.00
57827;BME280;43656;57.746;11.780;2023-03-22T06:12:06;99849.25;;;10.11;100.00
57827;BME280;43656;57.746;11.780;2023-03-22T06:14:31;99857.88;;;10.13;100.00
57827;BME280;43656;57.746;11.780;2023-03-22T06:16:56;99849.41;;;10.16;100.00
57827;BME280;43656;57.746;11.780;2023-03-22T06:19:22;99845.31;;;10.14;100.00
57827;BME280;43656;57.746;11.780;2023-03-22T06:21:50;99848.94;;;10.19;100.00
57827;BME280;43656;57.746;11.780;2023-03-22T06:24:17;99839.06;;;10.13;100.00
57827;BME280;43656;57.746;11.780;2023-03-22T06:26:44;99846.25;;;10.19;100.00
57827;BME280;43656;57.746;11.780;2023-03-22T06:29:10;99841.94;;;10.18;100.00
57827;BME280;43656;57.746;11.780;2023-03-22T06:31:36;99834.31;;;10.15;100.00
57827;BME280;43656;57.746;11.780;2023-03-22T06:34:01;99850.69;;;10.14;100.00
57827;BME280;43656;57.746;11.780;2023-03-22T06:36:28;99846.69;;;10.16;100.00
57827;BME280;43656;57.746;11.780;2023-03-22T06:38:54;99826.69;;;10.12;100.00
57827;BME280;43656;57.746;11.780;2023-03-22T06:41:19;99836.34;;;10.20;100.00
57827;BME280;43656;57.746;11.780;2023-03-22T06:43:45;99849.78;;;10.20;100.00
57827;BME280;43656;57.746;11.780;2023-03-22T06:46:10;99832.44;;;10.16;100.00
57827;BME280;43656;57.746;11.780;2023-03-22T06:48:35;99842.31;;;10.22;100.00
57827;BME280;43656;57.746;11.780;2023-03-22T06:51:01;99839.41;;;10.30;100.00
57827;BME280;43656;57.746;11.780;2023-03-22T06:53:26;99826.41;;;10.27;100.00
57827;BME280;43656;57.746;11.780;2023-03-22T06:55:52;99834.78;;;10.37;100.00
57827;BME280;43656;57.746;11.780;2023-03-22T06:58:17;99839.34;;;10.37;100.00
57827;BME280;43656;57.746;11.780;2023-03-22T07:00:43;99829.59;;;10.35;100.00
57827;BME280;43656;57.746;11.780;2023-03-22T07:03:08;99830.44;;;10.36;100.00
57827;BME280;43656;57.746;11.780;2023-03-22T07:05:34;99834.16;;;10.35;100.00
57827;BME280;43656;57.746;11.780;2023-03-22T07:07:59;99825.59;;;10.45;100.00
57827;BME280;43656;57.746;11.780;2023-03-22T07:10:25;99819.16;;;10.46;100.00
57827;BME280;43656;57.746;11.780;2023-03-22T07:12:50;99797.13;;;10.37;100.00
57827;BME280;43656;57.746;11.780;2023-03-22T07:15:16;99810.72;;;10.42;100.00
57827;BME280;43656;57.746;11.780;2023-03-22T07:17:42;99820.22;;;10.45;100.00
57827;BME280;43656;57.746;11.780;2023-03-22T07:20:08;99804.38;;;10.37;100.00
57827;BME280;43656;57.746;11.780;2023-03-22T07:22:33;99807.22;;;10.42;100.00
57827;BME280;43656;57.746;11.780;2023-03-22T07:24:59;99804.44;;;10.48;100.00
57827;BME280;43656;57.746;11.780;2023-03-22T07:27:25;99803.19;;;10.51;100.00
57827;BME280;43656;57.746;11.780;2023-03-22T07:29:50;99785.25;;;10.45;100.00
57827;BME280;43656;57.746;11.780;2023-03-22T07:32:16;99798.47;;;10.65;100.00
57827;BME280;43656;57.746;11.780;2023-03-22T07:34:41;99790.50;;;10.58;100.00
57827;BME280;43656;57.746;11.780;2023-03-22T07:37:06;99788.53;;;10.65;100.00
57827;BME280;43656;57.746;11.780;2023-03-22T07:39:33;99777.34;;;10.50;100.00
57827;BME280;43656;57.746;11.780;2023-03-22T07:41:59;99795.50;;;10.54;100.00
57827;BME280;43656;57.746;11.780;2023-03-22T07:44:24;99801.56;;;10.50;100.00
57827;BME280;43656;57.746;11.780;2023-03-22T07:46:50;99811.03;;;10.52;100.00
57827;BME280;43656;57.746;11.780;2023-03-22T07:49:17;99799.69;;;10.50;100.00
57827;BME280;43656;57.746;11.780;2023-03-22T07:51:43;99801.47;;;10.38;100.00
57827;BME280;43656;57.746;11.780;2023-03-22T07:54:08;99807.88;;;10.37;100.00
57827;BME280;43656;57.746;11.780;2023-03-22T07:56:34;99790.63;;;10.20;100.00
57827;BME280;43656;57.746;11.780;2023-03-22T07:59:00;99790.94;;;10.37;100.00
57827;BME280;43656;57.746;11.780;2023-03-22T08:01:25;99794.06;;;10.33;100.00
57827;BME280;43656;57.746;11.780;2023-03-22T08:03:51;99777.56;;;10.30;100.00
57827;BME280;43656;57.746;11.780;2023-03-22T08:06:18;99780.56;;;10.40;100.00
57827;BME280;43656;57.746;11.780;2023-03-22T08:08:44;99784.63;;;10.43;100.00
57827;BME280;43656;57.746;11.780;2023-03-22T08:11:09;99744.09;;;10.19;100.00
57827;BME280;43656;57.746;11.780;2023-03-22T08:13:36;99786.16;;;10.57;100.00
57827;BME280;43656;57.746;11.780;2023-03-22T08:16:02;99763.91;;;10.50;100.00
57827;BME280;43656;57.746;11.780;2023-03-22T08:18:28;99788.41;;;10.60;100.00
57827;BME280;43656;57.746;11.780;2023-03-22T08:20:55;99779.97;;;10.56;100.00
57827;BME280;43656;57.746;11.780;2023-03-22T08:23:22;99778.91;;;10.57;100.00
57827;BME280;43656;57.746;11.780;2023-03-22T08:25:47;99781.34;;;10.59;100.00
57827;BME280;43656;57.746;11.780;2023-03-22T08:28:13;99788.56;;;10.47;100.00
57827;BME280;43656;57.746;11.780;2023-03-22T08:30:41;99774.72;;;10.62;100.00
57827;BME280;43656;57.746;11.780;2023-03-22T08:33:07;99779.88;;;10.63;100.00
57827;BME280;43656;57.746;11.780;2023-03-22T08:35:33;99768.88;;;10.65;100.00
57827;BME280;43656;57.746;11.780;2023-03-22T08:37:58;99762.69;;;10.64;100.00
57827;BME280;43656;57.746;11.780;2023-03-22T08:40:24;99762.69;;;10.64;100.00
57827;BME280;43656;57.746;11.780;2023-03-22T08:42:50;99757.44;;;10.69;100.00
57827;BME280;43656;57.746;11.780;2023-03-22T08:45:15;99757.53;;;10.63;100.00
57827;BME280;43656;57.746;11.780;2023-03-22T08:47:41;99762.81;;;10.69;100.00
57827;BME280;43656;57.746;11.780;2023-03-22T08:50:08;99762.97;;;10.74;100.00
57827;BME280;43656;57.746;11.780;2023-03-22T08:52:34;99759.22;;;10.75;100.00
57827;BME280;43656;57.746;11.780;2023-03-22T08:54:59;99743.84;;;10.64;100.00
57827;BME280;43656;57.746;11.780;2023-03-22T08:57:25;99739.97;;;10.60;100.00
57827;BME280;43656;57.746;11.780;2023-03-22T08:59:52;99751.31;;;10.62;100.00
57827;BME280;43656;57.746;11.780;2023-03-22T09:02:18;99751.56;;;10.61;100.00
57827;BME280;43656;57.746;11.780;2023-03-22T09:04:44;99750.22;;;10.51;100.00
57827;BME280;43656;57.746;11.780;2023-03-22T09:07:09;99742.97;;;10.52;100.00
57827;BME280;43656;57.746;11.780;2023-03-22T09:09:35;99717.56;;;10.29;100.00
57827;BME280;43656;57.746;11.780;2023-03-22T09:12:00;99728.91;;;10.31;100.00
57827;BME280;43656;57.746;11.780;2023-03-22T09:14:26;99744.97;;;10.38;100.00
57827;BME280;43656;57.746;11.780;2023-03-22T09:16:51;99723.78;;;10.30;100.00
57827;BME280;43656;57.746;11.780;2023-03-22T09:19:16;99735.66;;;10.41;100.00
57827;BME280;43656;57.746;11.780;2023-03-22T09:21:42;99725.03;;;10.27;100.00
57827;BME280;43656;57.746;11.780;2023-03-22T09:24:07;99728.56;;;10.28;100.00
57827;BME280;43656;57.746;11.780;2023-03-22T09:26:33;99726.91;;;10.27;100.00
57827;BME280;43656;57.746;11.780;2023-03-22T09:28:59;99733.09;;;10.27;100.00
57827;BME280;43656;57.746;11.780;2023-03-22T09:31:24;99721.13;;;10.23;100.00
57827;BME280;43656;57.746;11.780;2023-03-22T09:33:50;99713.97;;;10.17;100.00
57827;BME280;43656;57.746;11.780;2023-03-22T09:36:15;99714.66;;;10.31;100.00
57827;BME280;43656;57.746;11.780;2023-03-22T09:38:41;99697.00;;;10.17;100.00
57827;BME280;43656;57.746;11.780;2023-03-22T09:41:35;99708.94;;;10.21;100.00
57827;BME280;43656;57.746;11.780;2023-03-22T09:44:04;99708.09;;;10.27;100.00
57827;BME280;43656;57.746;11.780;2023-03-22T09:46:40;99694.09;;;10.18;100.00
57827;BME280;43656;57.746;11.780;2023-03-22T09:49:17;99703.28;;;10.29;100.00
57827;BME280;43656;57.746;11.780;2023-03-22T09:51:46;99701.69;;;10.21;100.00
57827;BME280;43656;57.746;11.780;2023-03-22T10:02:18;99690.66;;;10.29;100.00
57827;BME280;43656;57.746;11.780;2023-03-22T10:10:19;99675.16;;;10.50;100.00
57827;BME280;43656;57.746;11.780;2023-03-22T10:15:41;99678.31;;;10.77;100.00
57827;BME280;43656;57.746;11.780;2023-03-22T10:18:12;99684.50;;;10.77;100.00
57827;BME280;43656;57.746;11.780;2023-03-22T10:23:34;99669.78;;;10.92;100.00
57827;BME280;43656;57.746;11.780;2023-03-22T10:26:03;99668.47;;;10.82;100.00
57827;BME280;43656;57.746;11.780;2023-03-22T10:28:36;99678.22;;;10.95;100.00
57827;BME280;43656;57.746;11.780;2023-03-22T10:31:02;99659.00;;;10.80;100.00
57827;BME280;43656;57.746;11.780;2023-03-22T10:33:38;99671.16;;;10.82;100.00
57827;BME280;43656;57.746;11.780;2023-03-22T10:36:08;99671.59;;;10.98;100.00
57827;BME280;43656;57.746;11.780;2023-03-22T10:38:52;99674.50;;;10.96;100.00
57827;BME280;43656;57.746;11.780;2023-03-22T10:41:20;99655.56;;;11.03;100.00
57827;BME280;43656;57.746;11.780;2023-03-22T10:43:51;99656.28;;;11.10;100.00
57827;BME280;43656;57.746;11.780;2023-03-22T10:46:20;99659.75;;;10.99;100.00
57827;BME280;43656;57.746;11.780;2023-03-22T10:48:49;99636.59;;;10.98;100.00
57827;BME280;43656;57.746;11.780;2023-03-22T10:52:08;99646.84;;;11.19;100.00
57827;BME280;43656;57.746;11.780;2023-03-22T10:54:26;99648.94;;;11.29;100.00
57827;BME280;43656;57.746;11.780;2023-03-22T10:56:51;99642.47;;;11.18;100.00
57827;BME280;43656;57.746;11.780;2023-03-22T10:59:51;99648.09;;;11.17;100.00
57827;BME280;43656;57.746;11.780;2023-03-22T11:02:27;99641.19;;;11.21;100.00
57827;BME280;43656;57.746;11.780;2023-03-22T11:04:55;99624.91;;;11.04;100.00
57827;BME280;43656;57.746;11.780;2023-03-22T11:12:32;99644.91;;;11.08;100.00
57827;BME280;43656;57.746;11.780;2023-03-22T11:14:58;99634.97;;;10.97;100.00
57827;BME280;43656;57.746;11.780;2023-03-22T11:17:24;99635.31;;;11.00;100.00
57827;BME280;43656;57.746;11.780;2023-03-22T11:20:03;99627.13;;;11.07;100.00
57827;BME280;43656;57.746;11.780;2023-03-22T11:22:37;99627.50;;;11.11;100.00
57827;BME280;43656;57.746;11.780;2023-03-22T11:25:20;99613.53;;;11.02;100.00
57827;BME280;43656;57.746;11.780;2023-03-22T11:28:05;99630.59;;;10.96;100.00
57827;BME280;43656;57.746;11.780;2023-03-22T11:30:33;99620.34;;;11.04;100.00
57827;BME280;43656;57.746;11.780;2023-03-22T11:33:17;99622.31;;;10.97;100.00
57827;BME280;43656;57.746;11.780;2023-03-22T11:35:45;99619.06;;;11.07;100.00
57827;BME280;43656;57.746;11.780;2023-03-22T11:38:35;99618.81;;;11.09;100.00
57827;BME280;43656;57.746;11.780;2023-03-22T11:41:03;99616.47;;;11.12;100.00
57827;BME280;43656;57.746;11.780;2023-03-22T11:43:42;99605.34;;;10.97;100.00
57827;BME280;43656;57.746;11.780;2023-03-22T11:46:15;99618.19;;;10.83;100.00
57827;BME280;43656;57.746;11.780;2023-03-22T11:48:44;99610.94;;;10.84;100.00
57827;BME280;43656;57.746;11.780;2023-03-22T11:51:25;99612.56;;;10.85;100.00
57827;BME280;43656;57.746;11.780;2023-03-22T11:54:05;99609.00;;;10.72;100.00
57827;BME280;43656;57.746;11.780;2023-03-22T11:56:32;99610.69;;;10.73;100.00
57827;BME280;43656;57.746;11.780;2023-03-22T11:59:04;99604.56;;;10.66;100.00
57827;BME280;43656;57.746;11.780;2023-03-22T12:01:45;99588.69;;;10.76;100.00
57827;BME280;43656;57.746;11.780;2023-03-22T12:04:18;99581.53;;;10.70;100.00
57827;BME280;43656;57.746;11.780;2023-03-22T12:06:47;99593.47;;;10.74;100.00
57827;BME280;43656;57.746;11.780;2023-03-22T12:09:37;99589.16;;;10.73;100.00
57827;BME280;43656;57.746;11.780;2023-03-22T12:12:09;99578.38;;;10.73;100.00
57827;BME280;43656;57.746;11.780;2023-03-22T12:17:31;99589.97;;;10.74;100.00
57827;BME280;43656;57.746;11.780;2023-03-22T12:22:35;99574.88;;;10.73;100.00
57827;BME280;43656;57.746;11.780;2023-03-22T12:25:02;99563.72;;;10.69;100.00
57827;BME280;43656;57.746;11.780;2023-03-22T12:27:38;99579.75;;;10.64;100.00
57827;BME280;43656;57.746;11.780;2023-03-22T12:30:11;99585.84;;;10.71;100.00
57827;BME280;43656;57.746;11.780;2023-03-22T12:35:41;99567.28;;;10.70;100.00
57827;BME280;43656;57.746;11.780;2023-03-22T12:38:36;99558.84;;;10.66;100.00
57827;BME280;43656;57.746;11.780;2023-03-22T12:41:02;99563.38;;;10.66;100.00
57827;BME280;43656;57.746;11.780;2023-03-22T12:46:12;99555.00;;;10.74;100.00
57827;BME280;43656;57.746;11.780;2023-03-22T12:48:43;99541.53;;;10.74;100.00
57827;BME280;43656;57.746;11.780;2023-03-22T12:51:12;99545.28;;;10.73;100.00
57827;BME280;43656;57.746;11.780;2023-03-22T12:53:44;99532.75;;;10.78;100.00
57827;BME280;43656;57.746;11.780;2023-03-22T12:56:14;99539.09;;;10.84;100.00
57827;BME280;43656;57.746;11.780;2023-03-22T12:58:44;99528.09;;;10.86;100.00
57827;BME280;43656;57.746;11.780;2023-03-22T13:03:49;99509.59;;;10.89;100.00
57827;BME280;43656;57.746;11.780;2023-03-22T13:11:26;99483.53;;;10.90;100.00
57827;BME280;43656;57.746;11.780;2023-03-22T13:13:51;99487.72;;;10.86;100.00
57827;BME280;43656;57.746;11.780;2023-03-22T13:16:19;99475.94;;;10.87;100.00
57827;BME280;43656;57.746;11.780;2023-03-22T13:21:20;99473.44;;;10.62;100.00
57827;BME280;43656;57.746;11.780;2023-03-22T13:23:56;99476.13;;;10.62;100.00
57827;BME280;43656;57.746;11.780;2023-03-22T13:26:30;99474.50;;;10.61;100.00
57827;BME280;43656;57.746;11.780;2023-03-22T13:28:59;99465.25;;;10.68;100.00
57827;BME280;43656;57.746;11.780;2023-03-22T13:31:42;99463.97;;;10.71;100.00
57827;BME280;43656;57.746;11.780;2023-03-22T13:34:14;99448.03;;;10.46;100.00
57827;BME280;43656;57.746;11.780;2023-03-22T13:36:48;99459.75;;;10.63;100.00
57827;BME280;43656;57.746;11.780;2023-03-22T13:39:14;99432.50;;;10.48;100.00
57827;BME280;43656;57.746;11.780;2023-03-22T13:41:44;99453.53;;;10.63;100.00
57827;BME280;43656;57.746;11.780;2023-03-22T13:44:38;99431.00;;;10.64;100.00
57827;BME280;43656;57.746;11.780;2023-03-22T13:47:27;99420.56;;;10.55;100.00
57827;BME280;43656;57.746;11.780;2023-03-22T13:49:59;99436.81;;;10.72;100.00
57827;BME280;43656;57.746;11.780;2023-03-22T13:52:28;99419.16;;;10.65;100.00
57827;BME280;43656;57.746;11.780;2023-03-22T13:54:57;99408.31;;;10.60;100.00
57827;BME280;43656;57.746;11.780;2023-03-22T13:57:55;99419.16;;;10.65;100.00
57827;BME280;43656;57.746;11.780;2023-03-22T14:03:16;99404.66;;;10.54;100.00
57827;BME280;43656;57.746;11.780;2023-03-22T14:05:43;99412.63;;;10.61;100.00
57827;BME280;43656;57.746;11.780;2023-03-22T14:08:19;99403.25;;;10.51;100.00
57827;BME280;43656;57.746;11.780;2023-03-22T14:10:51;99404.56;;;10.61;100.00
57827;BME280;43656;57.746;11.780;2023-03-22T14:13:27;99389.34;;;10.54;100.00
57827;BME280;43656;57.746;11.780;2023-03-22T14:15:56;99387.34;;;10.62;100.00
57827;BME280;43656;57.746;11.780;2023-03-22T14:18:28;99380.81;;;10.57;100.00
57827;BME280;43656;57.746;11.780;2023-03-22T14:20:58;99377.63;;;10.49;100.00
57827;BME280;43656;57.746;11.780;2023-03-22T14:23:27;99382.53;;;10.28;100.00
57827;BME280;43656;57.746;11.780;2023-03-22T14:26:03;99384.22;;;10.53;100.00
57827;BME280;43656;57.746;11.780;2023-03-22T14:28:36;99383.13;;;10.66;100.00